GCHI

Hierro Airport

El Hierro Island, Spain
METAR GCHI 222030Z AUTO 23005KT 190V250 CAVOK 22/18 Q1016
Observed Flight Rules
Oct-22 @ 20:30 UTC (19 minutes ago) Visual Flight Rules
Wind Visibility Clouds
230° at 5 knots 10,000+ meters
  • Clear skies
Temperatures Readings
Current 22°C / 72°F
Dewpoint 18°C / 64°F
Humidity 78%
Altimeter 30" Hg
Pressure 1016 hPa
Elevation 30
METAR GCHI 222030Z AUTO 23005KT 190V250 CAVOK 22/18 Q1016
Observed Flight Rules
Oct-22 @ 20:30 UTC
(19 minutes ago)
VFR
Wind Visibility
230° at 5 knots 10,000+ meters
Clouds
  • Clear skies
Temperature Dewpoint
22°C / 72°F 18°C / 64°F
Humidity Altimeter Pressure
78% 30" Hg 1016 hPa